Burlington, VT

12:38 AM EDT on June 02, 2015 (GMT -0400)
Lakeside Ave | | Change Station
CLOSE
Current Station
Personal Weather Station
Location: BURLINGTON, VT
Elevation: 112 ft
Nearby Weather Stations

Elev 112 ft 44.46 °N, 73.22 °W | Updated 16 minutes ago

Overcast
Overcast
51.1 °F
Feels Like 51.1 °F
N
6.0
Wind Variable Wind from South
Gusts 6.0 mph

Today
High -- | Low -- °F
--% Chance of Precip.
Yesterday
High -- | Low -- °F
Precip. -- in
5:10 AM 8:31 PM
Full, 100% visible
Pressure 30.22 in
Visibility 10.0 miles
Clouds Overcast 3900 ft
Dew Point 51 °F
Humidity 100%
Rainfall 0.00 in
Snow Depth Not available.
UV 0 out of 12
Pollen .90 out of 12
Air Quality Not available.
Flu Activity Sporadic
METAR KBTV 020354Z 11005KT 10SM OVC039 11/08 A3022 RMK AO2 SLP234 T01060078 $

More Conditions Fewer Conditions

Pressure 30.22 in
Visibility 10.0 miles
Clouds Overcast 3900 ft
Dew Point 51 °F
Humidity 100%
Rainfall 0.00 in
Snow Depth Not available.
UV 0 out of 12
Pollen .90 out of 12
Air Quality Not available.
Flu Activity Sporadic
METAR KBTV 020354Z 11005KT 10SM OVC039 11/08 A3022 RMK AO2 SLP234 T01060078 $

More Conditions Fewer Conditions

10-Day Weather Forecast

Almanac

Astronomy

Jun. 02, 2015 Rise Set
Actual Time
Civil Twilight
Nautical Twilight
Astronomical Twilight
Moon
Length of Visible Light
Length of Day
Tomorrow will be .
, % of the Moon is Illuminated

Today's Extremes

State Highs State Lows

Community

WunderPhotos

Upload Photos

1,825,908 photos uploaded!

WunderBlogs® & News

Nearby

Air Quality

  Air Quality AQ Index Pollutant
Not available.

Snow Depth

Station Depth Elevation

Earthquake Activity

City Distance Mag. Time & Date
Minimum magnitude displayed is 2.5.

Coastal Water Temperatures

Place Temperature

Stations

Nearby Weather Stations

Station Location Temp. Windchill Dew Point Humidity Wind Precip. Elev Updated Type